Time;durP1;ratioP1;P1;durP2;ratioP2;P2;SDS_P1;SDS_P2;PMS_P1;PMS_P2;Temp;Humidity;BMP_temperature;BMP_pressure;BME280_temperature;BME280_humidity;BME280_pressure;Samples;Min_cycle;Max_cycle;Signal;HPM_P1;HPM_P2
2023/07/12 00:00:23;;;;;;;6.60;4.80;;;;;;;19.78;100.00;97798.69;5072510;28;20615;-80
2023/07/12 00:02:49;;;;;;;7.43;4.83;;;;;;;19.73;100.00;97803.72;5072683;28;20231;-80
2023/07/12 00:05:17;;;;;;;5.50;4.60;;;;;;;19.73;100.00;97801.03;5072394;28;20254;-79
2023/07/12 00:07:46;;;;;;;4.27;3.87;;;;;;;19.66;100.00;97789.34;5072573;28;20254;-81
2023/07/12 00:10:18;;;;;;;6.03;4.30;;;;;;;19.68;100.00;97784.63;5072414;28;20246;-81
2023/07/12 00:12:45;;;;;;;5.03;3.70;;;;;;;19.70;100.00;97787.97;5072145;28;20239;-80
2023/07/12 00:15:15;;;;;;;4.60;3.80;;;;;;;19.66;100.00;97800.06;5072162;28;20321;-80
2023/07/12 00:17:41;;;;;;;5.13;4.20;;;;;;;19.69;100.00;97780.94;5071963;28;20218;-80
2023/07/12 00:20:28;;;;;;;5.60;3.80;;;;;;;19.68;100.00;97770.41;5072308;28;20215;-80
2023/07/12 00:22:56;;;;;;;4.83;3.73;;;;;;;19.70;100.00;97769.19;5071732;28;20642;-80
2023/07/12 00:25:31;;;;;;;6.20;3.50;;;;;;;19.70;100.00;97774.56;5074646;28;20219;-80
2023/07/12 00:27:58;;;;;;;5.40;3.83;;;;;;;19.68;100.00;97781.94;5083964;28;20248;-81
2023/07/12 00:30:28;;;;;;;5.43;3.93;;;;;;;19.73;100.00;97781.41;5090507;28;20301;-82
2023/07/12 00:32:57;;;;;;;4.60;3.67;;;;;;;19.76;100.00;97781.91;5092403;28;20214;-82
2023/07/12 00:35:26;;;;;;;5.13;3.90;;;;;;;19.79;100.00;97772.69;5092054;28;20256;-81
2023/07/12 00:37:56;;;;;;;5.30;4.00;;;;;;;19.88;100.00;97755.59;5092024;28;20210;-81
2023/07/12 00:40:39;;;;;;;5.23;3.80;;;;;;;19.91;100.00;97731.94;5091151;28;20198;-82
2023/07/12 00:43:16;;;;;;;4.13;3.47;;;;;;;19.92;100.00;97725.56;5092229;28;20211;-82
2023/07/12 00:45:45;;;;;;;3.60;3.00;;;;;;;19.89;100.00;97725.91;5091783;28;20700;-81
2023/07/12 00:48:12;;;;;;;3.20;2.90;;;;;;;19.84;100.00;97728.28;5091899;28;20207;-80
2023/07/12 00:50:40;;;;;;;3.77;3.10;;;;;;;19.76;100.00;97725.59;5091244;28;20215;-79
2023/07/12 00:53:13;;;;;;;3.50;3.07;;;;;;;19.75;100.00;97731.97;5091642;28;20233;-79
2023/07/12 00:56:05;;;;;;;4.07;3.43;;;;;;;19.77;100.00;97746.06;5092004;28;20210;-79
2023/07/12 00:58:35;;;;;;;3.23;2.87;;;;;;;19.80;100.00;97736.84;5091318;28;20210;-76
2023/07/12 01:01:04;;;;;;;4.17;3.07;;;;;;;19.74;100.00;97734.84;5089152;28;20225;-75
2023/07/12 01:03:34;;;;;;;5.10;3.03;;;;;;;19.71;100.00;97752.13;5091365;28;20203;-76
2023/07/12 01:06:01;;;;;;;3.67;2.90;;;;;;;19.71;100.00;97749.44;5091440;28;20234;-76
2023/07/12 01:08:30;;;;;;;4.40;3.40;;;;;;;19.72;100.00;97737.69;5091488;28;20272;-76
2023/07/12 01:10:58;;;;;;;4.90;3.37;;;;;;;19.68;100.00;97732.84;5090768;28;20280;-76
2023/07/12 01:13:25;;;;;;;3.23;2.87;;;;;;;19.69;100.00;97726.47;5091341;28;20207;-76
2023/07/12 01:15:52;;;;;;;3.80;3.00;;;;;;;19.70;100.00;97731.66;5091259;28;20673;-76
2023/07/12 01:18:19;;;;;;;3.97;3.40;;;;;;;19.73;100.00;97728.63;5091228;28;20222;-76
2023/07/12 01:20:48;;;;;;;4.70;3.27;;;;;;;19.78;100.00;97707.50;5090542;28;20237;-75
2023/07/12 01:23:16;;;;;;;6.17;3.60;;;;;;;19.76;100.00;97677.31;5091316;28;20577;-76
2023/07/12 01:25:45;;;;;;;4.27;3.30;;;;;;;19.78;100.00;97671.81;5091280;28;20226;-76
2023/07/12 01:28:12;;;;;;;4.27;3.03;;;;;;;19.79;100.00;97673.47;5091195;28;20203;-76
2023/07/12 01:30:39;;;;;;;4.03;3.50;;;;;;;19.83;100.00;97672.13;5090056;28;20584;-76
2023/07/12 01:33:06;;;;;;;3.73;3.10;;;;;;;19.85;100.00;97670.09;5091287;28;20211;-76
2023/07/12 01:35:33;;;;;;;4.37;3.07;;;;;;;19.87;100.00;97658.19;5091187;28;20245;-76
2023/07/12 01:37:59;;;;;;;4.47;3.20;;;;;;;19.93;100.00;97660.16;5091010;28;20218;-76
2023/07/12 01:40:27;;;;;;;3.27;2.97;;;;;;;19.96;100.00;97677.75;5090366;28;20202;-76
2023/07/12 01:42:54;;;;;;;4.07;3.67;;;;;;;19.96;100.00;97664.34;5090906;28;20203;-75
2023/07/12 01:45:21;;;;;;;6.67;3.00;;;;;;;19.94;100.00;97610.84;5090947;28;20324;-76
2023/07/12 01:47:47;;;;;;;7.47;3.17;;;;;;;19.91;100.00;97514.66;5091297;28;20211;-75
2023/07/12 01:50:14;;;;;;;3.77;2.87;;;;;;;19.78;100.00;97519.78;5090092;28;20203;-76
2023/07/12 01:52:40;;;;;;;4.83;3.10;;;;;;;19.63;100.00;97553.72;5093310;28;20230;-81
2023/07/12 01:55:07;;;;;;;4.63;2.87;;;;;;;19.58;100.00;97607.03;5095351;28;20203;-80
2023/07/12 01:57:35;;;;;;;3.47;3.03;;;;;;;19.54;100.00;97608.41;5094962;28;20211;-80
2023/07/12 02:00:01;;;;;;;5.57;3.10;;;;;;;19.52;100.00;97613.09;5094642;28;20552;-80
2023/07/12 02:02:28;;;;;;;3.97;2.70;;;;;;;19.48;100.00;97619.81;5095209;28;20234;-80
2023/07/12 02:04:55;;;;;;;3.10;2.80;;;;;;;19.44;100.00;97596.22;5094946;28;20226;-80
2023/07/12 02:07:21;;;;;;;3.20;2.90;;;;;;;19.42;100.00;97603.56;5095165;28;20264;-80
2023/07/12 02:10:13;;;;;;;4.40;3.00;;;;;;;19.38;100.00;97603.09;5094562;28;20209;-80
2023/07/12 02:12:42;;;;;;;4.27;3.40;;;;;;;19.34;100.00;97595.59;5094695;28;20729;-80
2023/07/12 02:15:10;;;;;;;3.87;3.20;;;;;;;19.39;100.00;97598.59;5094838;28;20218;-80
2023/07/12 02:17:36;;;;;;;4.07;3.47;;;;;;;19.40;100.00;97587.69;5094716;28;20217;-80
2023/07/12 02:20:03;;;;;;;4.77;3.37;;;;;;;19.39;100.00;97599.41;5094071;28;20214;-80
2023/07/12 02:22:31;;;;;;;4.67;3.60;;;;;;;19.42;100.00;97601.75;5094438;28;20246;-80
2023/07/12 02:24:58;;;;;;;4.77;4.13;;;;;;;19.36;100.00;97589.03;5094551;28;20887;-80
2023/07/12 02:27:25;;;;;;;4.90;3.93;;;;;;;19.37;100.00;97590.72;5094585;28;20206;-80
2023/07/12 02:29:53;;;;;;;7.37;4.10;;;;;;;19.32;100.00;97586.91;5094129;28;20211;-80
2023/07/12 02:32:20;;;;;;;4.90;3.80;;;;;;;19.30;100.00;97588.88;5094474;28;20234;-80
2023/07/12 02:34:47;;;;;;;4.63;3.70;;;;;;;19.22;100.00;97589.78;5094453;28;20206;-80
2023/07/12 02:37:13;;;;;;;5.10;3.30;;;;;;;19.25;100.00;97592.09;5094098;28;20673;-80
2023/07/12 02:39:40;;;;;;;3.77;3.33;;;;;;;19.24;100.00;97589.56;5093781;28;20207;-80
2023/07/12 02:42:07;;;;;;;5.30;3.87;;;;;;;19.22;100.00;97586.25;5094031;28;20223;-80
2023/07/12 02:44:33;;;;;;;4.97;3.60;;;;;;;19.20;100.00;97585.56;5094021;28;20589;-80
2023/07/12 02:47:01;;;;;;;5.00;3.83;;;;;;;19.22;100.00;97587.09;5094121;28;20217;-80
2023/07/12 02:49:28;;;;;;;4.67;3.90;;;;;;;19.22;100.00;97583.56;5093288;28;20222;-80
2023/07/12 02:51:55;;;;;;;5.03;4.10;;;;;;;19.22;100.00;97587.09;5093920;28;20604;-80
2023/07/12 02:54:21;;;;;;;5.13;3.83;;;;;;;19.20;100.00;97589.09;5094326;28;20207;-80
2023/07/12 02:56:47;;;;;;;4.70;3.73;;;;;;;19.23;100.00;97587.91;5093889;28;20232;-80
2023/07/12 02:59:14;;;;;;;5.97;3.97;;;;;;;19.20;100.00;97578.38;5093205;28;20202;-80
2023/07/12 03:01:41;;;;;;;6.27;4.13;;;;;;;19.21;100.00;97574.69;5093697;28;20230;-80
2023/07/12 03:04:09;;;;;;;6.97;4.47;;;;;;;19.19;100.00;97576.66;5093350;28;20206;-80
2023/07/12 03:06:35;;;;;;;6.57;3.90;;;;;;;19.16;100.00;97582.41;5093789;28;20227;-80
2023/07/12 03:09:04;;;;;;;4.53;4.03;;;;;;;19.13;100.00;97593.44;5093418;28;20305;-80
2023/07/12 03:11:30;;;;;;;7.43;4.67;;;;;;;19.11;100.00;97592.78;5093207;28;20226;-80
2023/07/12 03:13:57;;;;;;;7.50;4.57;;;;;;;19.12;100.00;97597.13;5094104;28;20210;-80
2023/07/12 03:16:23;;;;;;;6.43;3.93;;;;;;;19.13;100.00;97596.13;5093771;28;20228;-80
2023/07/12 03:18:50;;;;;;;5.43;4.27;;;;;;;19.17;100.00;97599.28;5093581;28;20211;-80
2023/07/12 03:21:18;;;;;;;4.73;3.83;;;;;;;19.19;100.00;97603.47;5102760;22;20245;-77
2023/07/12 03:23:45;;;;;;;3.97;3.57;;;;;;;19.20;100.00;97604.31;5053627;28;20219;-75
2023/07/12 03:26:12;;;;;;;5.83;3.80;;;;;;;19.19;100.00;97602.66;5053212;28;20232;-75
2023/07/12 03:28:38;;;;;;;5.77;3.70;;;;;;;19.20;100.00;97599.81;5053246;28;20208;-75
2023/07/12 03:31:09;;;;;;;4.50;3.97;;;;;;;19.18;100.00;97604.47;5052063;28;20212;-75
2023/07/12 03:33:35;;;;;;;5.83;4.50;;;;;;;19.16;100.00;97601.16;5053632;28;20416;-75
2023/07/12 03:36:02;;;;;;;4.83;3.97;;;;;;;19.15;100.00;97599.44;5053328;28;20204;-75
2023/07/12 03:38:30;;;;;;;4.70;4.13;;;;;;;19.18;100.00;97612.50;5053197;28;20585;-75
2023/07/12 03:41:00;;;;;;;6.47;4.10;;;;;;;19.16;100.00;97614.53;5052234;28;20208;-77
2023/07/12 03:43:27;;;;;;;5.40;4.20;;;;;;;19.16;100.00;97619.03;5053070;28;20617;-75
2023/07/12 03:45:54;;;;;;;5.77;4.40;;;;;;;19.19;100.00;97618.72;5052909;28;20232;-75
2023/07/12 03:48:23;;;;;;;7.30;3.93;;;;;;;19.18;100.00;97628.59;5052737;28;20212;-75
2023/07/12 03:50:50;;;;;;;4.60;4.03;;;;;;;19.28;100.00;97634.63;5052301;28;20239;-74
2023/07/12 03:53:17;;;;;;;5.30;3.73;;;;;;;19.31;100.00;97654.88;5052903;28;20235;-75
2023/07/12 03:55:47;;;;;;;4.20;3.83;;;;;;;19.32;100.00;97665.41;5052889;28;20204;-75
2023/07/12 03:58:16;;;;;;;5.17;3.90;;;;;;;19.36;100.00;97663.22;5052765;28;20290;-75
2023/07/12 04:00:43;;;;;;;5.50;4.07;;;;;;;19.39;100.00;97647.63;5051903;28;20215;-75
2023/07/12 04:03:11;;;;;;;9.07;4.27;;;;;;;19.40;100.00;97627.91;5052927;28;20337;-75
2023/07/12 04:05:38;;;;;;;4.50;3.70;;;;;;;19.46;100.00;97637.09;5052632;28;20282;-75
2023/07/12 04:08:05;;;;;;;6.03;4.50;;;;;;;19.44;100.00;97639.91;5052816;28;20211;-75
2023/07/12 04:10:32;;;;;;;4.93;3.97;;;;;;;19.45;100.00;97640.78;5051691;28;20246;-75
2023/07/12 04:13:00;;;;;;;9.07;4.57;;;;;;;19.44;100.00;97652.50;5052243;28;20234;-75
2023/07/12 04:15:27;;;;;;;6.43;4.40;;;;;;;19.48;100.00;97662.72;5051538;28;20208;-75
2023/07/12 04:17:53;;;;;;;6.00;4.13;;;;;;;19.47;100.00;97665.53;5052391;28;20255;-75
2023/07/12 04:20:20;;;;;;;6.63;4.10;;;;;;;19.54;100.00;97674.56;5051445;28;20215;-75
2023/07/12 04:22:49;;;;;;;6.20;3.90;;;;;;;19.63;100.00;97698.50;5052241;28;20255;-75
2023/07/12 04:25:16;;;;;;;6.23;4.00;;;;;;;19.65;100.00;97701.88;5052263;28;20232;-75
2023/07/12 04:27:43;;;;;;;6.43;4.40;;;;;;;19.68;100.00;97701.50;5052148;28;20674;-75
2023/07/12 04:30:13;;;;;;;5.77;3.77;;;;;;;19.75;100.00;97707.84;5051532;28;20223;-74
2023/07/12 04:32:40;;;;;;;6.87;3.57;;;;;;;19.84;100.00;97711.34;5051934;28;20709;-76
2023/07/12 04:35:07;;;;;;;5.60;4.20;;;;;;;19.87;100.00;97711.81;5052171;28;20207;-75
2023/07/12 04:37:33;;;;;;;5.03;3.63;;;;;;;19.95;100.00;97703.75;5052127;28;20212;-74
2023/07/12 04:40:00;;;;;;;7.80;3.70;;;;;;;20.09;100.00;97705.72;5051051;28;20219;-75
2023/07/12 04:42:26;;;;;;;7.57;3.90;;;;;;;20.25;100.00;97713.69;5051734;28;20610;-75
2023/07/12 04:44:53;;;;;;;5.53;3.70;;;;;;;20.38;100.00;97716.66;5051996;28;20204;-75
2023/07/12 04:47:21;;;;;;;5.40;4.00;;;;;;;20.53;100.00;97714.88;5051843;28;20305;-75
2023/07/12 04:49:47;;;;;;;5.33;3.73;;;;;;;20.63;100.00;97707.41;5051026;28;20208;-74
2023/07/12 04:52:14;;;;;;;4.50;3.93;;;;;;;20.74;100.00;97716.91;5051471;28;20259;-75
2023/07/12 04:54:42;;;;;;;8.67;4.20;;;;;;;20.86;100.00;97713.59;5051919;28;20235;-75
2023/07/12 04:57:09;;;;;;;4.50;3.93;;;;;;;20.96;100.00;97708.03;5051410;28;20212;-75
2023/07/12 04:59:36;;;;;;;6.10;3.90;;;;;;;21.06;100.00;97716.66;5051158;28;20204;-75
2023/07/12 05:02:03;;;;;;;6.93;4.00;;;;;;;21.10;100.00;97710.75;5051535;28;20239;-75
2023/07/12 05:04:32;;;;;;;5.67;4.10;;;;;;;21.15;100.00;97711.03;5051451;28;20266;-76
2023/07/12 05:06:58;;;;;;;6.77;4.10;;;;;;;21.16;100.00;97717.25;5051247;28;20224;-75
2023/07/12 05:09:25;;;;;;;5.30;4.00;;;;;;;21.14;100.00;97706.69;5050527;28;20230;-75
2023/07/12 05:11:52;;;;;;;8.13;4.40;;;;;;;21.23;100.00;97711.00;5051434;28;20243;-75
2023/07/12 05:14:18;;;;;;;8.53;4.47;;;;;;;21.32;100.00;97717.94;5050953;28;20766;-75
2023/07/12 05:16:45;;;;;;;7.37;4.60;;;;;;;21.37;100.00;97720.94;5051423;28;20208;-75
2023/07/12 05:19:12;;;;;;;6.33;4.73;;;;;;;21.45;100.00;97728.91;5050558;28;20227;-75
2023/07/12 05:21:40;;;;;;;5.83;4.67;;;;;;;21.56;100.00;97724.91;5051395;28;20240;-74
2023/07/12 05:24:06;;;;;;;6.90;4.73;;;;;;;21.67;100.00;97729.88;5051147;28;20234;-75
2023/07/12 05:26:33;;;;;;;6.37;4.80;;;;;;;21.71;100.00;97729.31;5051104;28;20282;-75
2023/07/12 05:28:59;;;;;;;7.67;4.60;;;;;;;21.87;100.00;97731.00;5051093;28;20307;-75
2023/07/12 05:31:26;;;;;;;6.60;4.50;;;;;;;21.94;100.00;97730.06;5050571;28;20599;-75
2023/07/12 05:33:53;;;;;;;5.50;4.90;;;;;;;22.00;100.00;97739.28;5050938;28;20257;-75
2023/07/12 05:36:19;;;;;;;6.00;4.33;;;;;;;22.01;100.00;97730.16;5051024;28;20204;-75
2023/07/12 05:38:47;;;;;;;5.37;4.57;;;;;;;22.02;100.00;97738.06;5051156;28;20208;-75
2023/07/12 05:41:14;;;;;;;8.53;4.83;;;;;;;22.04;100.00;97730.63;5050231;28;20621;-75
2023/07/12 05:43:41;;;;;;;5.23;4.40;;;;;;;22.03;100.00;97739.72;5050905;28;20207;-75
2023/07/12 05:46:07;;;;;;;4.93;4.43;;;;;;;22.05;100.00;97740.38;5050785;28;20232;-75
2023/07/12 05:48:34;;;;;;;6.73;4.83;;;;;;;22.10;100.00;97729.88;5050974;28;20615;-75
2023/07/12 05:51:03;;;;;;;11.20;4.87;;;;;;;22.15;100.00;97738.25;5050017;28;20211;-75
2023/07/12 05:53:29;;;;;;;7.07;4.53;;;;;;;22.14;100.00;97735.72;5050712;28;20298;-75
2023/07/12 05:55:58;;;;;;;9.13;5.10;;;;;;;22.19;100.00;97738.69;5051001;28;20211;-75
2023/07/12 05:58:25;;;;;;;9.07;4.77;;;;;;;22.20;100.00;97730.41;5050918;28;20215;-75
2023/07/12 06:00:56;;;;;;;7.17;4.57;;;;;;;22.23;100.00;97727.34;5050005;28;20219;-79
2023/07/12 06:03:22;;;;;;;5.77;4.40;;;;;;;22.25;100.00;97725.31;5051331;28;20587;-80
2023/07/12 06:05:49;;;;;;;6.83;4.80;;;;;;;22.30;100.00;97720.19;5050591;28;20243;-80
2023/07/12 06:08:16;;;;;;;8.37;4.93;;;;;;;22.36;100.00;97719.44;5050748;28;20306;-82
2023/07/12 06:10:44;;;;;;;6.30;4.70;;;;;;;22.61;100.00;97728.06;5049958;28;20567;-86
2023/07/12 06:13:12;;;;;;;6.30;4.47;;;;;;;22.77;100.00;97719.72;5052707;28;20228;-85
2023/07/12 06:15:39;;;;;;;7.23;4.80;;;;;;;22.88;100.00;97719.19;5051092;28;20592;-85
2023/07/12 06:18:05;;;;;;;7.00;4.60;;;;;;;22.95;100.00;97725.50;5050685;28;20211;-85
2023/07/12 06:20:32;;;;;;;6.47;4.60;;;;;;;22.83;100.00;97732.41;5050205;28;20582;-87
2023/07/12 06:22:59;;;;;;;10.13;4.80;;;;;;;22.86;100.00;97738.25;5050650;28;20240;-83
2023/07/12 06:25:26;;;;;;;5.83;5.00;;;;;;;22.79;100.00;97737.34;5051170;28;20244;-80
2023/07/12 06:27:52;;;;;;;6.33;4.43;;;;;;;22.80;100.00;97744.41;5049234;28;20232;-78
2023/07/12 06:30:20;;;;;;;5.40;4.40;;;;;;;22.86;100.00;97748.22;5049786;28;20204;-78
2023/07/12 06:32:47;;;;;;;5.67;4.47;;;;;;;22.93;100.00;97752.63;5050056;28;20232;-77
2023/07/12 06:35:14;;;;;;;5.90;4.73;;;;;;;23.00;100.00;97761.63;5050412;28;20216;-77
2023/07/12 06:37:40;;;;;;;8.03;4.50;;;;;;;23.05;100.00;97769.97;5051192;28;20211;-77
2023/07/12 06:40:08;;;;;;;5.63;4.30;;;;;;;23.32;100.00;97758.44;5053343;28;20216;-77
2023/07/12 06:42:34;;;;;;;7.37;4.37;;;;;;;23.96;100.00;97759.97;5053936;28;20232;-82
2023/07/12 06:45:01;;;;;;;8.00;4.63;;;;;;;24.56;100.00;97749.25;5053920;28;20215;-77
2023/07/12 06:47:31;;;;;;;6.43;4.07;;;;;;;25.01;95.91;97750.47;5053754;28;20228;-77
2023/07/12 06:49:58;;;;;;;8.47;4.30;;;;;;;25.48;91.06;97734.91;5053460;28;20247;-75
2023/07/12 06:52:24;;;;;;;6.00;4.20;;;;;;;25.39;85.67;97728.06;5053772;28;20281;-80
2023/07/12 06:54:51;;;;;;;6.47;4.20;;;;;;;25.01;86.51;97745.06;5053830;28;20295;-77
2023/07/12 06:57:18;;;;;;;5.87;3.87;;;;;;;24.97;89.03;97760.84;5053564;28;20204;-77
2023/07/12 06:59:45;;;;;;;7.73;4.53;;;;;;;25.29;88.78;97765.50;5052694;28;20216;-77
2023/07/12 07:02:11;;;;;;;5.27;4.47;;;;;;;25.60;87.33;97760.31;5053438;28;20228;-77
2023/07/12 07:04:39;;;;;;;6.70;4.70;;;;;;;25.75;86.65;97760.94;5053572;28;20703;-77
2023/07/12 07:07:06;;;;;;;6.97;4.13;;;;;;;25.71;85.82;97762.41;5053634;28;20228;-76
2023/07/12 07:09:33;;;;;;;7.67;4.53;;;;;;;25.57;85.84;97771.56;5052764;28;20212;-76
2023/07/12 07:12:00;;;;;;;5.37;4.00;;;;;;;25.31;85.76;97768.84;5053410;28;20224;-76
2023/07/12 07:14:27;;;;;;;6.33;4.30;;;;;;;25.18;88.48;97790.44;5053314;28;20265;-76
2023/07/12 07:16:54;;;;;;;6.03;3.83;;;;;;;24.97;89.43;97798.72;5053680;28;20208;-77
2023/07/12 07:19:20;;;;;;;6.40;4.03;;;;;;;24.77;90.06;97808.66;5051253;28;20207;-76
2023/07/12 07:21:50;;;;;;;4.67;3.90;;;;;;;24.66;89.27;97801.09;5050675;28;20726;-76
2023/07/12 07:24:17;;;;;;;5.77;4.33;;;;;;;24.79;91.19;97795.75;5051985;28;20223;-76
2023/07/12 07:26:43;;;;;;;5.87;3.97;;;;;;;24.80;88.21;97794.72;5051563;28;20228;-76
2023/07/12 07:29:10;;;;;;;5.33;3.50;;;;;;;24.78;84.88;97798.66;5050372;28;20223;-76
2023/07/12 07:31:36;;;;;;;6.30;4.00;;;;;;;24.73;86.19;97807.38;5052390;28;20228;-76
2023/07/12 07:34:04;;;;;;;3.77;3.27;;;;;;;24.76;84.08;97801.53;5052276;28;20223;-76
2023/07/12 07:36:30;;;;;;;6.20;3.73;;;;;;;24.82;84.61;97799.91;5051124;28;20204;-76
2023/07/12 07:38:58;;;;;;;4.20;3.53;;;;;;;24.89;86.03;97817.84;5051565;28;20218;-76
2023/07/12 07:41:25;;;;;;;3.80;3.40;;;;;;;24.90;85.47;97803.28;5051023;28;20239;-76
2023/07/12 07:43:51;;;;;;;7.33;3.53;;;;;;;24.87;80.82;97794.75;5051159;28;20670;-76
2023/07/12 07:46:18;;;;;;;3.60;2.90;;;;;;;24.82;80.36;97800.72;5052058;28;20219;-76
2023/07/12 07:48:45;;;;;;;4.30;3.30;;;;;;;24.83;80.75;97797.03;5051092;28;20587;-76
2023/07/12 07:51:14;;;;;;;5.47;3.60;;;;;;;24.85;82.48;97821.97;5049749;28;20235;-76
2023/07/12 07:53:41;;;;;;;4.53;3.70;;;;;;;24.98;81.07;97813.06;5051949;28;20223;-76
2023/07/12 07:56:08;;;;;;;4.50;3.43;;;;;;;25.09;81.54;97813.31;5051130;28;20212;-76
2023/07/12 07:58:35;;;;;;;3.97;3.43;;;;;;;25.05;78.74;97805.81;5051075;28;20208;-76
2023/07/12 08:01:02;;;;;;;7.43;3.67;;;;;;;25.15;81.79;97820.59;5050510;28;20621;-76
2023/07/12 08:03:31;;;;;;;5.67;3.97;;;;;;;25.22;79.86;97810.63;5051496;28;20212;-76
2023/07/12 08:06:01;;;;;;;5.33;3.17;;;;;;;25.38;80.43;97807.56;5050782;28;20218;-76
2023/07/12 08:08:28;;;;;;;6.00;3.60;;;;;;;25.49;77.68;97793.41;5050251;28;20227;-76
2023/07/12 08:10:55;;;;;;;5.37;3.53;;;;;;;25.52;79.84;97809.25;5051567;28;20204;-76
2023/07/12 08:13:23;;;;;;;3.80;3.40;;;;;;;25.60;78.98;97806.31;5052362;28;20215;-76
2023/07/12 08:15:49;;;;;;;4.87;3.20;;;;;;;25.64;78.02;97796.75;5052367;28;20208;-76
2023/07/12 08:18:16;;;;;;;5.00;3.03;;;;;;;25.68;77.45;97800.72;5052262;28;20554;-75
2023/07/12 08:20:43;;;;;;;4.67;3.50;;;;;;;25.75;76.69;97798.84;5051520;28;20212;-76
2023/07/12 08:23:09;;;;;;;3.57;3.00;;;;;;;25.74;74.82;97797.19;5051862;28;20270;-76
2023/07/12 08:25:36;;;;;;;4.03;3.20;;;;;;;25.86;75.35;97806.34;5052283;28;20219;-76
2023/07/12 08:28:03;;;;;;;6.22;3.40;;;;;;;25.98;73.46;97801.97;5051815;28;20247;-77
2023/07/12 08:30:30;;;;;;;3.92;3.53;;;;;;;26.10;72.69;97811.09;5051453;28;20207;-82
2023/07/12 08:32:57;;;;;;;4.17;3.20;;;;;;;26.22;73.70;97812.13;5051625;28;20235;-76
2023/07/12 08:35:23;;;;;;;3.17;2.88;;;;;;;26.30;70.77;97809.22;5051815;28;20712;-79
2023/07/12 08:37:50;;;;;;;4.67;3.50;;;;;;;26.29;72.30;97818.41;5051481;28;20208;-76
2023/07/12 08:40:19;;;;;;;4.75;3.38;;;;;;;26.28;71.60;97811.28;5050965;28;20290;-78
2023/07/12 08:42:46;;;;;;;4.00;2.90;;;;;;;26.37;75.08;97828.16;5051835;28;20273;-86
2023/07/12 08:45:25;;;;;;;4.03;3.53;;;;;;;26.40;71.51;97817.72;5052401;28;20204;-77
2023/07/12 08:47:58;;;;;;;5.30;3.38;;;;;;;26.48;68.76;97809.38;5051528;28;20242;-75
2023/07/12 08:50:25;;;;;;;4.07;2.80;;;;;;;26.56;67.02;97814.59;5050920;28;20682;-75
2023/07/12 08:52:53;;;;;;;4.28;2.80;;;;;;;26.54;67.90;97807.72;5051606;28;20238;-75
2023/07/12 08:55:22;;;;;;;4.88;3.20;;;;;;;26.56;69.53;97822.72;5051745;28;20208;-75
2023/07/12 08:57:55;;;;;;;4.33;2.93;;;;;;;26.57;66.99;97810.00;5051511;28;20281;-75
2023/07/12 09:00:23;;;;;;;4.70;2.85;;;;;;;26.68;67.02;97804.75;5050589;28;20211;-75
2023/07/12 09:02:50;;;;;;;5.40;3.03;;;;;;;26.98;67.58;97818.56;5051150;28;20224;-77
2023/07/12 09:05:20;;;;;;;3.15;2.85;;;;;;;27.08;64.29;97806.22;5051603;28;20211;-75
2023/07/12 09:07:54;;;;;;;4.05;3.15;;;;;;;27.25;62.73;97803.88;5051554;28;20259;-74
2023/07/12 09:10:29;;;;;;;3.72;3.08;;;;;;;27.25;63.88;97801.97;5050817;28;20204;-77
2023/07/12 09:12:58;;;;;;;4.25;2.92;;;;;;;27.42;65.12;97816.69;5051171;28;20281;-74
2023/07/12 09:15:33;;;;;;;4.40;2.80;;;;;;;27.50;64.71;97813.69;5050346;28;20274;-73
2023/07/12 09:18:00;;;;;;;3.60;2.80;;;;;;;27.59;64.75;97817.81;5050412;28;20214;-72
2023/07/12 09:20:30;;;;;;;3.78;2.55;;;;;;;27.59;59.92;97780.63;5047824;28;20220;-72
2023/07/12 09:22:56;;;;;;;3.97;2.28;;;;;;;27.68;60.00;97790.16;5076817;22;20755;-80
2023/07/12 09:25:26;;;;;;;4.18;2.78;;;;;;;27.91;61.26;97805.88;5069522;28;20203;-80
2023/07/12 09:27:52;;;;;;;2.80;2.33;;;;;;;27.93;58.54;97782.88;5072341;28;20268;-80
2023/07/12 09:30:22;;;;;;;2.80;2.60;;;;;;;27.90;58.57;97782.50;5071800;28;20207;-79
2023/07/12 09:32:49;;;;;;;3.38;2.53;;;;;;;27.91;59.45;97784.16;5070159;28;20270;-81
2023/07/12 09:35:32;;;;;;;3.00;2.20;;;;;;;27.96;58.47;97776.16;5070335;28;20214;-80
2023/07/12 09:38:00;;;;;;;3.63;2.90;;;;;;;27.86;58.21;97783.97;5070363;28;20294;-81
2023/07/12 09:40:30;;;;;;;4.30;2.38;;;;;;;27.65;55.01;97749.03;5070499;28;20539;-81
2023/07/12 09:42:58;;;;;;;4.38;2.80;;;;;;;27.94;55.66;97756.53;5072373;28;20231;-82
2023/07/12 09:45:30;;;;;;;3.95;2.70;;;;;;;27.96;56.25;97765.28;5071929;28;20260;-81
2023/07/12 09:48:06;;;;;;;3.25;2.42;;;;;;;28.07;55.85;97768.09;5070487;28;20250;-80
2023/07/12 09:50:40;;;;;;;3.85;2.75;;;;;;;28.18;55.20;97752.94;5069142;28;20222;-80
2023/07/12 09:53:17;;;;;;;3.45;2.50;;;;;;;28.24;53.69;97738.47;5071043;28;20230;-81
2023/07/12 09:55:51;;;;;;;4.07;2.78;;;;;;;28.10;54.24;97739.63;5074004;28;20254;-80
2023/07/12 09:58:28;;;;;;;5.38;2.72;;;;;;;27.87;55.38;97751.16;5071257;28;20690;-81
2023/07/12 10:01:01;;;;;;;3.53;2.67;;;;;;;27.84;57.51;97767.06;5069279;28;20207;-80
2023/07/12 10:03:35;;;;;;;4.90;2.67;;;;;;;27.86;57.16;97765.81;5069148;28;20757;-80
2023/07/12 10:06:12;;;;;;;4.35;2.58;;;;;;;27.86;56.57;97759.53;5069596;28;20674;-78
2023/07/12 10:08:46;;;;;;;5.95;2.58;;;;;;;27.87;56.60;97761.19;5072401;28;20227;-79
2023/07/12 10:11:19;;;;;;;2.88;2.35;;;;;;;27.98;54.76;97755.03;5071502;28;20204;-83
2023/07/12 10:13:50;;;;;;;4.53;2.70;;;;;;;28.01;53.88;97741.00;5074542;28;20191;-79
2023/07/12 10:16:22;;;;;;;2.70;2.50;;;;;;;27.99;52.71;97722.19;5076366;28;20207;-81
2023/07/12 10:18:50;;;;;;;3.45;2.60;;;;;;;28.01;56.00;97757.31;5075624;28;20216;-79
2023/07/12 10:21:21;;;;;;;4.90;2.47;;;;;;;27.89;52.40;97732.75;5074232;28;20213;-79
2023/07/12 10:23:52;;;;;;;6.05;2.80;;;;;;;27.71;54.36;97734.56;5074885;28;20635;-79
2023/07/12 10:26:19;;;;;;;3.33;2.45;;;;;;;27.65;58.11;97757.19;5074935;28;20662;-79
2023/07/12 10:28:51;;;;;;;4.43;3.00;;;;;;;27.88;54.40;97730.28;5075013;28;20309;-79
2023/07/12 10:31:34;;;;;;;3.42;2.58;;;;;;;28.10;52.74;97715.19;5074207;28;20207;-79
2023/07/12 10:34:17;;;;;;;4.07;3.05;;;;;;;28.19;52.20;97713.84;5074941;28;20214;-80
2023/07/12 10:36:46;;;;;;;4.15;2.80;;;;;;;28.37;54.67;97738.34;5074608;28;20187;-79
2023/07/12 10:39:13;;;;;;;4.65;2.83;;;;;;;28.55;51.66;97711.94;5074071;28;20199;-79
2023/07/12 10:41:44;;;;;;;3.42;2.70;;;;;;;28.60;50.12;97703.09;5075367;28;20609;-82
2023/07/12 10:44:19;;;;;;;3.38;2.63;;;;;;;28.72;51.21;97723.00;5074832;28;20269;-79
2023/07/12 10:46:55;;;;;;;3.38;2.63;;;;;;;28.77;52.09;97736.75;5074350;28;20214;-78
2023/07/12 10:49:41;;;;;;;2.92;2.63;;;;;;;28.69;51.79;97718.88;5073752;28;20207;-77
2023/07/12 10:52:20;;;;;;;3.53;2.70;;;;;;;28.73;50.20;97709.19;5075339;28;20227;-79
2023/07/12 10:55:12;;;;;;;5.75;2.72;;;;;;;28.68;48.23;97692.72;5083975;28;20575;-86
2023/07/12 10:57:42;;;;;;;3.10;2.80;;;;;;;28.36;49.19;97698.59;5076500;28;20294;-77
2023/07/12 11:00:26;;;;;;;2.75;2.55;;;;;;;28.36;51.20;97710.31;5074656;28;20207;-80
2023/07/12 11:03:04;;;;;;;3.78;2.85;;;;;;;28.69;51.60;97712.59;5078482;28;20238;-83
2023/07/12 11:05:43;;;;;;;3.17;2.67;;;;;;;29.00;51.15;97720.56;5082211;28;20271;-83
2023/07/12 11:08:36;;;;;;;3.10;2.80;;;;;;;29.03;47.98;97682.84;5084687;28;20231;-89
2023/07/12 11:11:28;;;;;;;3.20;2.65;;;;;;;28.80;50.08;97703.66;5086189;28;20211;-88
2023/07/12 11:14:12;;;;;;;4.43;3.03;;;;;;;28.97;48.91;97685.66;5084022;28;20207;-89
2023/07/12 11:16:45;;;;;;;3.15;2.88;;;;;;;29.19;49.70;97697.66;5085694;28;20264;-88
2023/07/12 11:19:43;;;;;;;3.58;2.92;;;;;;;29.32;49.36;97672.94;5085647;28;20209;-89
2023/07/12 11:22:14;;;;;;;5.40;2.58;;;;;;;29.21;48.18;97673.75;5082829;28;20243;-87
2023/07/12 11:24:53;;;;;;;3.25;2.55;;;;;;;29.07;48.87;97684.03;5089999;28;20210;-89
2023/07/12 11:27:32;;;;;;;4.50;2.75;;;;;;;29.14;50.44;97705.69;5089086;28;20203;-88
2023/07/12 11:30:14;;;;;;;4.05;3.00;;;;;;;29.36;50.74;97710.38;5085673;28;20210;-89
2023/07/12 11:32:41;;;;;;;3.85;3.08;;;;;;;29.24;47.29;97668.69;5087321;28;20231;-87
2023/07/12 11:35:15;;;;;;;4.68;3.00;;;;;;;29.38;47.73;97677.44;5089705;28;20215;-88
2023/07/12 11:37:45;;;;;;;3.25;2.60;;;;;;;29.38;48.54;97691.06;5087302;28;20209;-88